KMQI

Dare County Regional Airport

Manteo, North Carolina, USA
METAR KMQI 151905Z AUTO 25014KT 10SM CLR 14/03 A2984 RMK AO2 T01360032
Observed Flight Rules
Dec-15 @ 19:05 UTC (27 minutes ago) Visual Flight Rules
Wind Visibility Clouds
250° at 14 knots 10 miles
  • Clear skies
Temperatures Readings
Current 14°C / 57°F
Dewpoint 3°C / 37°F
Humidity 48%
Altimeter 29.84" Hg
Pressure 1010 hPa
Elevation 4
METAR KMQI 151905Z AUTO 25014KT 10SM CLR 14/03 A2984 RMK AO2 T01360032
Observed Flight Rules
Dec-15 @ 19:05 UTC
(27 minutes ago)
VFR
Wind Visibility
250° at 14 knots 10 miles
Clouds
  • Clear skies
Temperature Dewpoint
14°C / 57°F 3°C / 37°F
Humidity Altimeter Pressure
48% 29.84" Hg 1010 hPa